createdAt,value
2018-08-10T00:01:29.640Z,6.40
2018-08-10T00:04:02.722Z,8.30
2018-08-10T00:06:35.728Z,4.60
2018-08-10T00:09:11.857Z,10.75
2018-08-10T00:11:45.425Z,6.32
2018-08-10T00:14:16.975Z,8.07
2018-08-10T00:16:49.954Z,6.90
2018-08-10T00:19:20.074Z,6.10
2018-08-10T00:21:50.116Z,9.73
2018-08-10T00:24:25.002Z,7.93
2018-08-10T00:26:59.745Z,5.47
2018-08-10T00:29:31.863Z,12.68
2018-08-10T00:32:04.205Z,5.95
2018-08-10T00:34:35.121Z,4.93
2018-08-10T00:37:06.101Z,5.37
2018-08-10T00:39:38.748Z,7.43
2018-08-10T00:42:13.320Z,5.40
2018-08-10T00:44:44.832Z,6.97
2018-08-10T00:47:16.768Z,4.62
2018-08-10T00:49:48.305Z,6.45
2018-08-10T00:52:20.995Z,12.93
2018-08-10T00:54:54.706Z,8.65
2018-08-10T00:57:24.704Z,5.70
2018-08-10T00:59:57.721Z,4.50
2018-08-10T01:02:29.276Z,9.93
2018-08-10T01:05:00.870Z,8.55
2018-08-10T01:07:35.361Z,9.38
2018-08-10T01:10:14.538Z,8.13
2018-08-10T01:12:44.737Z,7.97
2018-08-10T01:15:17.715Z,7.10
2018-08-10T01:17:50.991Z,8.57
2018-08-10T01:20:25.719Z,5.22
2018-08-10T01:23:11.355Z,11.90
2018-08-10T01:25:41.487Z,6.78
2018-08-10T01:28:14.037Z,4.62
2018-08-10T01:30:45.833Z,7.00
2018-08-10T01:33:19.230Z,3.90
2018-08-10T01:35:50.763Z,3.47
2018-08-10T01:38:23.870Z,4.93
2018-08-10T01:40:56.893Z,8.32
2018-08-10T01:43:28.919Z,5.95
2018-08-10T01:46:01.016Z,3.50
2018-08-10T01:48:35.841Z,4.68
2018-08-10T01:51:07.284Z,3.90
2018-08-10T01:53:39.401Z,4.53
2018-08-10T01:56:14.167Z,5.75
2018-08-10T01:58:47.707Z,5.53
2018-08-10T02:01:19.060Z,8.13
2018-08-10T02:03:52.095Z,5.75
2018-08-10T02:06:25.380Z,6.90
2018-08-10T02:08:58.580Z,2.90
2018-08-10T02:11:30.135Z,3.80
2018-08-10T02:14:03.407Z,3.50
2018-08-10T02:16:37.130Z,6.45
2018-08-10T02:19:10.208Z,5.32
2018-08-10T02:21:41.879Z,5.97
2018-08-10T02:24:13.340Z,6.35
2018-08-10T02:26:46.043Z,5.18
2018-08-10T02:29:20.030Z,5.75
2018-08-10T02:31:53.311Z,7.15
2018-08-10T02:34:26.239Z,6.12
2018-08-10T02:36:59.688Z,6.40
2018-08-10T02:39:32.750Z,6.93
2018-08-10T02:42:03.535Z,7.05
2018-08-10T02:44:35.583Z,8.45
2018-08-10T02:47:07.219Z,6.95
2018-08-10T02:49:40.280Z,6.72
2018-08-10T02:52:13.285Z,6.37
2018-08-10T02:54:46.384Z,6.80
2018-08-10T02:57:16.532Z,8.93
2018-08-10T02:59:50.866Z,8.18
2018-08-10T03:02:26.423Z,10.75
2018-08-10T03:05:00.899Z,12.35
2018-08-10T03:07:35.618Z,10.65
2018-08-10T03:10:10.336Z,13.82
2018-08-10T03:12:43.455Z,12.60
2018-08-10T03:15:21.128Z,14.25
2018-08-10T03:17:54.560Z,13.77
2018-08-10T03:20:26.736Z,11.18
2018-08-10T03:23:00.177Z,15.48
2018-08-10T03:25:32.251Z,15.38
2018-08-10T03:28:06.871Z,13.48
2018-08-10T03:30:38.311Z,16.60
2018-08-10T03:33:11.505Z,17.25
2018-08-10T03:35:41.560Z,17.15
2018-08-10T03:38:16.169Z,15.60
2018-08-10T03:40:47.618Z,17.67
2018-08-10T03:43:17.417Z,14.95
2018-08-10T03:45:50.339Z,18.50
2018-08-10T03:48:25.347Z,15.65
2018-08-10T03:50:59.802Z,13.60
2018-08-10T03:53:31.545Z,19.42
2018-08-10T03:56:04.600Z,15.95
2018-08-10T03:58:36.218Z,15.85
2018-08-10T04:01:07.814Z,14.82
2018-08-10T04:03:39.312Z,13.02
2018-08-10T04:06:11.583Z,13.52
2018-08-10T04:08:44.868Z,19.25
2018-08-10T04:11:15.645Z,19.17
2018-08-10T04:13:50.234Z,14.32
2018-08-10T04:16:25.262Z,15.52
2018-08-10T04:18:56.965Z,19.05
2018-08-10T04:21:29.913Z,25.48
2018-08-10T04:24:01.558Z,18.25
2018-08-10T04:26:34.101Z,17.48
2018-08-10T04:29:05.760Z,17.20
2018-08-10T04:31:40.548Z,17.33
2018-08-10T04:34:13.573Z,17.75
2018-08-10T04:36:46.573Z,14.77
2018-08-10T04:39:18.814Z,13.75
2018-08-10T04:41:52.553Z,14.75
2018-08-10T04:44:25.435Z,16.42
2018-08-10T04:46:58.522Z,14.52
2018-08-10T04:49:31.714Z,17.12
2018-08-10T04:52:03.148Z,10.43
2018-08-10T04:54:36.253Z,9.25
2018-08-10T04:57:10.685Z,9.23
2018-08-10T04:59:45.177Z,11.63
2018-08-10T05:02:18.168Z,11.12
2018-08-10T05:04:49.667Z,11.00
2018-08-10T05:07:22.678Z,6.75
2018-08-10T05:09:55.639Z,7.62
2018-08-10T05:12:30.560Z,12.00
2018-08-10T05:15:03.781Z,8.70
2018-08-10T05:17:37.445Z,7.97
2018-08-10T05:20:13.331Z,9.60
2018-08-10T05:22:44.863Z,8.45
2018-08-10T05:25:15.337Z,9.13
2018-08-10T05:27:46.822Z,8.70
2018-08-10T05:30:19.881Z,9.70
2018-08-10T05:32:51.295Z,8.45
2018-08-10T05:35:24.251Z,10.07
2018-08-10T05:37:57.654Z,10.32
2018-08-10T05:40:31.028Z,7.90
2018-08-10T05:43:02.352Z,9.13
2018-08-10T05:45:33.775Z,10.02
2018-08-10T05:48:03.971Z,11.60
2018-08-10T05:50:35.373Z,11.00
2018-08-10T05:53:08.616Z,10.80
2018-08-10T05:55:39.163Z,7.90
2018-08-10T05:58:10.878Z,10.20
2018-08-10T06:00:44.165Z,10.80
2018-08-10T06:03:17.166Z,12.32
2018-08-10T06:05:50.265Z,11.10
2018-08-10T06:08:23.206Z,11.77
2018-08-10T06:10:53.244Z,10.23
2018-08-10T06:13:23.694Z,9.60
2018-08-10T06:15:56.661Z,15.02
2018-08-10T06:18:29.941Z,16.90
2018-08-10T06:21:01.326Z,13.13
2018-08-10T06:23:34.257Z,13.38
2018-08-10T06:26:05.946Z,15.88
2018-08-10T06:28:40.589Z,10.27
2018-08-10T06:31:12.150Z,13.25
2018-08-10T06:33:44.383Z,11.20
2018-08-10T06:36:17.474Z,12.95
2018-08-10T06:38:50.509Z,9.35
2018-08-10T06:41:24.979Z,9.70
2018-08-10T06:43:54.973Z,15.40
2018-08-10T06:46:25.731Z,8.65
2018-08-10T06:48:58.944Z,12.10
2018-08-10T06:51:32.840Z,11.07
2018-08-10T06:54:05.334Z,11.20
2018-08-10T06:56:37.029Z,10.20
2018-08-10T06:59:08.546Z,11.45
2018-08-10T07:01:38.585Z,12.40
2018-08-10T07:04:11.393Z,8.07
2018-08-10T07:06:45.084Z,8.82
2018-08-10T07:09:17.002Z,11.23
2018-08-10T07:11:50.231Z,7.18
2018-08-10T07:14:23.377Z,6.97
2018-08-10T07:16:54.858Z,12.57
2018-08-10T07:19:26.374Z,8.43
2018-08-10T07:21:56.251Z,8.75
2018-08-10T07:24:27.727Z,8.98
2018-08-10T07:26:59.168Z,12.25
2018-08-10T07:29:37.634Z,12.02
2018-08-10T07:32:09.031Z,9.38
2018-08-10T07:34:42.031Z,7.28
2018-08-10T07:37:15.027Z,7.93
2018-08-10T07:39:49.425Z,14.27
2018-08-10T07:42:23.828Z,8.63
2018-08-10T07:44:55.591Z,6.65
2018-08-10T07:47:28.468Z,9.90
2018-08-10T07:50:01.656Z,7.37
2018-08-10T07:52:33.032Z,8.32
2018-08-10T07:55:05.900Z,10.77
2018-08-10T07:57:36.112Z,9.68
2018-08-10T08:00:09.604Z,10.90
2018-08-10T08:02:42.634Z,8.88
2018-08-10T08:05:15.538Z,9.75
2018-08-10T08:07:47.073Z,7.70
2018-08-10T08:10:21.018Z,9.95
2018-08-10T08:12:53.921Z,10.40
2018-08-10T08:15:26.912Z,4.82
2018-08-10T08:17:58.315Z,8.52
2018-08-10T08:20:31.069Z,10.45
2018-08-10T08:23:08.693Z,5.53
2018-08-10T08:25:41.623Z,4.68
2018-08-10T08:28:12.991Z,7.55
2018-08-10T08:30:43.165Z,8.18
2018-08-10T08:33:14.636Z,5.53
2018-08-10T08:35:47.865Z,8.35
2018-08-10T08:38:54.876Z,7.75
2018-08-10T08:41:26.521Z,7.15
2018-08-10T08:44:23.579Z,7.30
2018-08-10T08:46:55.098Z,9.43
2018-08-10T08:49:26.662Z,6.45
2018-08-10T08:51:57.089Z,7.68
2018-08-10T08:55:10.653Z,10.45
2018-08-10T08:57:42.729Z,10.32
2018-08-10T09:00:17.979Z,7.22
2018-08-10T09:02:47.929Z,5.82
2018-08-10T09:05:19.607Z,10.25
2018-08-10T09:07:52.656Z,6.47
2018-08-10T09:10:27.247Z,5.43
2018-08-10T09:13:00.668Z,5.97
2018-08-10T09:15:32.271Z,6.60
2018-08-10T09:18:05.175Z,5.95
2018-08-10T09:20:38.145Z,6.00
2018-08-10T09:23:12.362Z,7.82
2018-08-10T09:25:44.786Z,9.93
2018-08-10T09:28:18.028Z,8.52
2018-08-10T09:30:50.941Z,8.43
2018-08-10T09:33:23.817Z,5.53
2018-08-10T09:35:56.785Z,5.00
2018-08-10T09:38:28.724Z,6.10
2018-08-10T09:41:02.216Z,10.80
2018-08-10T09:43:35.439Z,9.82
2018-08-10T09:46:10.017Z,6.40
2018-08-10T09:48:43.146Z,11.63
2018-08-10T09:51:14.594Z,9.07
2018-08-10T09:53:46.001Z,8.80
2018-08-10T09:56:16.550Z,9.15
2018-08-10T09:58:49.487Z,4.60
2018-08-10T10:01:28.602Z,8.88
2018-08-10T10:04:00.234Z,8.70
2018-08-10T10:06:31.610Z,8.65
2018-08-10T10:09:06.193Z,7.05
2018-08-10T10:11:36.222Z,5.70
2018-08-10T10:14:11.962Z,7.40
2018-08-10T10:16:44.912Z,7.00
2018-08-10T10:19:16.145Z,6.53
2018-08-10T10:21:49.102Z,7.62
2018-08-10T10:24:23.728Z,6.35
2018-08-10T10:26:57.159Z,9.07
2018-08-10T10:29:30.553Z,14.05
2018-08-10T10:32:02.753Z,11.48
2018-08-10T10:34:34.248Z,9.63
2018-08-10T10:37:06.199Z,5.43
2018-08-10T10:39:37.603Z,5.53
2018-08-10T10:42:09.168Z,9.57
2018-08-10T10:44:42.581Z,6.68
2018-08-10T10:47:14.200Z,3.78
2018-08-10T10:49:46.205Z,4.53
2018-08-10T10:52:19.363Z,5.57
2018-08-10T10:54:52.324Z,6.12
2018-08-10T10:57:25.653Z,7.30
2018-08-10T11:00:00.151Z,5.53
2018-08-10T11:02:33.259Z,5.28
2018-08-10T11:05:04.689Z,5.47
2018-08-10T11:07:38.034Z,9.85
2018-08-10T11:10:14.840Z,4.35
2018-08-10T11:12:45.267Z,3.83
2018-08-10T11:15:18.577Z,3.50
2018-08-10T11:17:49.510Z,5.47
2018-08-10T11:20:19.560Z,5.75
2018-08-10T11:22:51.009Z,2.25
2018-08-10T11:25:25.683Z,4.95
2018-08-10T11:27:57.001Z,4.03
2018-08-10T11:30:30.743Z,2.97
2018-08-10T11:33:00.623Z,2.72
2018-08-10T11:35:31.483Z,5.82
2018-08-10T11:38:03.090Z,4.50
2018-08-10T11:40:35.987Z,2.75
2018-08-10T11:43:07.489Z,4.03
2018-08-10T11:45:40.602Z,2.28
2018-08-10T11:48:11.226Z,2.50
2018-08-10T11:50:44.091Z,3.42
2018-08-10T11:53:15.817Z,5.12
2018-08-10T11:55:48.725Z,3.35
2018-08-10T11:58:20.164Z,1.27
2018-08-10T12:00:54.864Z,3.90
2018-08-10T12:03:28.283Z,2.30
2018-08-10T12:05:59.813Z,4.05
2018-08-10T12:08:33.592Z,4.87
2018-08-10T12:11:05.514Z,2.65
2018-08-10T12:13:39.867Z,3.58
2018-08-10T12:16:09.802Z,3.47
2018-08-10T12:18:40.639Z,2.55
2018-08-10T12:21:12.056Z,2.85
2018-08-10T12:23:46.463Z,2.50
2018-08-10T12:26:16.602Z,2.58
2018-08-10T12:28:48.086Z,6.93
2018-08-10T12:31:21.044Z,3.30
2018-08-10T12:33:52.518Z,7.10
2018-08-10T12:36:25.521Z,9.00
2018-08-10T12:38:58.452Z,3.97
2018-08-10T12:41:30.169Z,3.90
2018-08-10T12:44:03.182Z,4.62
2018-08-10T12:46:35.302Z,2.30
2018-08-10T12:49:05.450Z,6.05
2018-08-10T12:51:35.489Z,2.20
2018-08-10T12:54:10.202Z,2.95
2018-08-10T12:56:43.083Z,3.08
2018-08-10T12:59:14.958Z,3.28
2018-08-10T13:01:46.528Z,2.03
2018-08-10T13:04:21.005Z,5.20
2018-08-10T13:06:52.422Z,2.87
2018-08-10T13:09:22.425Z,2.95
2018-08-10T13:11:55.470Z,4.35
2018-08-10T13:14:28.378Z,4.45
2018-08-10T13:17:01.345Z,5.20
2018-08-10T13:19:32.688Z,2.20
2018-08-10T13:22:02.572Z,3.62
2018-08-10T13:24:35.470Z,5.12
2018-08-10T13:27:07.354Z,4.78
2018-08-10T13:29:40.618Z,6.25
2018-08-10T13:32:14.448Z,4.10
2018-08-10T13:34:44.896Z,3.25
2018-08-10T13:37:16.364Z,4.25
2018-08-10T13:39:49.276Z,4.35
2018-08-10T13:42:20.675Z,2.20
2018-08-10T13:44:53.561Z,5.43
2018-08-10T13:47:24.953Z,3.45
2018-08-10T13:49:56.635Z,2.03
2018-08-10T13:52:29.497Z,2.65
2018-08-10T13:55:02.881Z,3.17
2018-08-10T13:57:33.065Z,3.67
2018-08-10T14:00:07.832Z,5.15
2018-08-10T14:02:39.258Z,2.20
2018-08-10T14:05:12.511Z,3.10
2018-08-10T14:07:45.467Z,3.60
2018-08-10T14:10:18.909Z,4.87
2018-08-10T14:12:50.257Z,2.40
2018-08-10T14:15:23.067Z,5.95
2018-08-10T14:17:54.408Z,2.75
2018-08-10T14:20:25.815Z,2.30
2018-08-10T14:22:58.908Z,2.28
2018-08-10T14:25:30.931Z,2.58
2018-08-10T14:28:05.400Z,3.90
2018-08-10T14:30:38.341Z,2.40
2018-08-10T14:33:12.719Z,3.85
2018-08-10T14:35:45.523Z,3.22
2018-08-10T14:38:15.493Z,3.67
2018-08-10T14:40:47.505Z,1.75
2018-08-10T14:43:20.307Z,2.10
2018-08-10T14:45:51.877Z,2.03
2018-08-10T14:48:23.316Z,1.80
2018-08-10T14:50:55.502Z,3.75
2018-08-10T14:53:26.914Z,2.20
2018-08-10T14:56:00.297Z,6.45
2018-08-10T14:58:33.297Z,3.15
2018-08-10T15:01:03.279Z,6.53
2018-08-10T15:03:35.496Z,4.62
2018-08-10T15:06:07.032Z,3.28
2018-08-10T15:08:40.042Z,4.15
2018-08-10T15:11:14.733Z,4.10
2018-08-10T15:13:46.274Z,5.28
2018-08-10T15:16:16.296Z,4.45
2018-08-10T15:18:46.332Z,5.05
2018-08-10T15:21:20.766Z,5.62
2018-08-10T15:23:52.283Z,5.03
2018-08-10T15:26:25.116Z,5.53
2018-08-10T15:28:58.485Z,3.60
2018-08-10T15:31:29.935Z,3.75
2018-08-10T15:34:01.528Z,4.97
2018-08-10T15:36:34.709Z,4.82
2018-08-10T15:39:11.568Z,2.72
2018-08-10T15:41:42.050Z,2.92
2018-08-10T15:44:12.468Z,5.18
2018-08-10T15:46:43.224Z,6.35
2018-08-10T15:49:14.666Z,8.43
2018-08-10T15:51:47.932Z,6.30
2018-08-10T15:54:19.545Z,5.18
2018-08-10T15:56:52.734Z,4.95
2018-08-10T15:59:23.226Z,5.35
2018-08-10T16:01:54.691Z,3.40
2018-08-10T16:04:26.551Z,3.65
2018-08-10T16:06:59.463Z,4.55
2018-08-10T16:09:33.186Z,5.78
2018-08-10T16:12:06.030Z,3.58
2018-08-10T16:14:37.589Z,6.00
2018-08-10T16:17:09.564Z,2.97
2018-08-10T16:19:42.435Z,6.37
2018-08-10T16:22:15.292Z,3.83
2018-08-10T16:24:45.287Z,7.75
2018-08-10T16:27:18.523Z,3.10
2018-08-10T16:29:48.601Z,6.18
2018-08-10T16:32:19.024Z,2.30
2018-08-10T16:34:50.478Z,3.97
2018-08-10T16:37:23.852Z,2.37
2018-08-10T16:39:54.311Z,3.87
2018-08-10T16:42:27.688Z,4.10
2018-08-10T16:45:00.711Z,4.97
2018-08-10T16:47:32.580Z,4.82
2018-08-10T16:50:04.480Z,5.22
2018-08-10T16:52:35.964Z,2.90
2018-08-10T16:55:10.763Z,2.60
2018-08-10T16:57:44.886Z,1.98
2018-08-10T17:00:22.194Z,5.80
2018-08-10T17:02:57.233Z,2.50
2018-08-10T17:05:31.564Z,5.03
2018-08-10T17:08:02.002Z,4.00
2018-08-10T17:10:36.565Z,3.00
2018-08-10T17:13:08.704Z,5.03
2018-08-10T17:15:42.357Z,2.40
2018-08-10T17:18:15.281Z,2.62
2018-08-10T17:20:46.873Z,4.80
2018-08-10T17:23:19.764Z,1.77
2018-08-10T17:25:51.784Z,6.68
2018-08-10T17:28:24.923Z,5.20
2018-08-10T17:30:59.292Z,3.83
2018-08-10T17:33:31.413Z,4.50
2018-08-10T17:36:02.059Z,2.55
2018-08-10T17:38:35.222Z,4.22
2018-08-10T17:41:09.880Z,9.93
2018-08-10T17:43:41.625Z,4.22
2018-08-10T17:46:14.640Z,2.80
2018-08-10T17:48:47.554Z,2.25
2018-08-10T17:51:19.043Z,2.97
2018-08-10T17:53:50.491Z,4.32
2018-08-10T17:56:23.380Z,3.72
2018-08-10T17:58:54.926Z,3.85
2018-08-10T18:01:29.728Z,4.87
2018-08-10T18:04:01.069Z,1.95
2018-08-10T18:06:34.054Z,3.53
2018-08-10T18:09:07.291Z,2.95
2018-08-10T18:11:38.790Z,2.97
2018-08-10T18:14:11.519Z,1.98
2018-08-10T18:16:44.506Z,1.87
2018-08-10T18:19:18.951Z,2.20
2018-08-10T18:21:51.987Z,3.40
2018-08-10T18:24:24.113Z,2.10
2018-08-10T18:26:55.825Z,3.15
2018-08-10T18:29:27.429Z,2.97
2018-08-10T18:31:59.101Z,2.10
2018-08-10T18:34:33.882Z,2.55
2018-08-10T18:37:07.439Z,3.45
2018-08-10T18:39:40.559Z,2.58
2018-08-10T18:42:12.975Z,2.42
2018-08-10T18:44:46.165Z,2.12
2018-08-10T18:47:16.184Z,1.77
2018-08-10T18:49:47.609Z,1.87
2018-08-10T18:52:19.302Z,5.55
2018-08-10T18:54:49.293Z,1.52
2018-08-10T18:57:20.810Z,3.95
2018-08-10T18:59:52.217Z,1.92
2018-08-10T19:02:24.103Z,2.72
2018-08-10T19:04:55.566Z,4.20
2018-08-10T19:07:28.574Z,1.85
2018-08-10T19:10:01.534Z,2.22
2018-08-10T19:12:33.078Z,1.95
2018-08-10T19:15:05.995Z,4.85
2018-08-10T19:17:38.961Z,5.35
2018-08-10T19:20:12.593Z,3.47
2018-08-10T19:22:44.596Z,2.67
2018-08-10T19:25:18.231Z,4.53
2018-08-10T19:27:51.848Z,2.35
2018-08-10T19:30:27.105Z,2.37
2018-08-10T19:33:00.041Z,3.00
2018-08-10T19:35:31.764Z,2.67
2018-08-10T19:38:03.249Z,2.87
2018-08-10T19:40:33.274Z,2.75
2018-08-10T19:43:06.363Z,3.22
2018-08-10T19:45:38.386Z,3.12
2018-08-10T19:48:11.311Z,4.68
2018-08-10T19:50:44.778Z,4.10
2018-08-10T19:53:18.123Z,2.83
2018-08-10T19:55:50.193Z,5.35
2018-08-10T19:58:23.209Z,5.53
2018-08-10T20:00:54.820Z,4.00
2018-08-10T20:03:29.203Z,4.43
2018-08-10T20:05:59.161Z,4.40
2018-08-10T20:08:30.699Z,3.95
2018-08-10T20:11:03.717Z,3.12
2018-08-10T20:13:35.264Z,2.90
2018-08-10T20:16:06.943Z,4.03
2018-08-10T20:18:39.965Z,2.42
2018-08-10T20:21:10.274Z,4.62
2018-08-10T20:23:45.186Z,7.50
2018-08-10T20:26:18.310Z,3.00
2018-08-10T20:28:51.224Z,6.00
2018-08-10T20:31:21.307Z,2.67
2018-08-10T20:33:56.128Z,3.42
2018-08-10T20:36:29.057Z,4.22
2018-08-10T20:38:59.084Z,4.95
2018-08-10T20:41:32.549Z,5.87
2018-08-10T20:44:07.092Z,4.82
2018-08-10T20:46:37.837Z,2.97
2018-08-10T20:49:09.689Z,4.18
2018-08-10T20:51:39.865Z,5.53
2018-08-10T20:54:11.948Z,3.67
2018-08-10T20:56:46.496Z,5.12
2018-08-10T20:59:21.078Z,3.10
2018-08-10T21:01:51.335Z,5.03
2018-08-10T21:04:25.265Z,4.40
2018-08-10T21:06:56.482Z,3.78
2018-08-10T21:09:29.358Z,5.07
2018-08-10T21:12:01.306Z,2.58
2018-08-10T21:14:34.855Z,3.42
2018-08-10T21:17:07.967Z,4.10
2018-08-10T21:19:40.957Z,5.45
2018-08-10T21:22:14.676Z,2.65
2018-08-10T21:24:44.775Z,5.87
2018-08-10T21:27:16.317Z,5.25
2018-08-10T21:29:47.761Z,4.78
2018-08-10T21:32:19.418Z,3.33
2018-08-10T21:34:49.421Z,6.28
2018-08-10T21:37:22.542Z,8.57
2018-08-10T21:39:56.945Z,6.80
2018-08-10T21:42:27.653Z,6.40
2018-08-10T21:45:02.564Z,5.78
2018-08-10T21:47:37.413Z,9.75
2018-08-10T21:50:42.478Z,14.52
2018-08-10T21:53:16.176Z,15.98
2018-08-10T21:55:48.380Z,22.30
2018-08-10T21:58:19.984Z,12.13
2018-08-10T22:01:04.609Z,7.55
2018-08-10T22:03:34.731Z,9.35
2018-08-10T22:06:07.961Z,14.07
2018-08-10T22:08:39.944Z,9.82
2018-08-10T22:11:13.290Z,11.05
2018-08-10T22:14:03.363Z,7.95
2018-08-10T22:16:53.764Z,10.95
2018-08-10T22:19:25.964Z,10.43
2018-08-10T22:21:59.268Z,10.32
2018-08-10T22:24:32.269Z,10.23
2018-08-10T22:27:05.400Z,7.18
2018-08-10T22:29:37.504Z,9.98
2018-08-10T22:32:10.574Z,9.70
2018-08-10T22:34:45.116Z,12.48
2018-08-10T22:37:19.569Z,11.45
2018-08-10T22:39:51.065Z,10.50
2018-08-10T22:42:24.007Z,10.93
2018-08-10T22:44:55.894Z,8.85
2018-08-10T22:47:26.129Z,13.38
2018-08-10T22:50:00.576Z,11.02
2018-08-10T22:52:35.043Z,12.20
2018-08-10T22:55:06.770Z,11.27
2018-08-10T22:57:38.258Z,12.55
2018-08-10T23:00:12.955Z,9.82
2018-08-10T23:02:45.990Z,7.85
2018-08-10T23:05:19.392Z,12.23
2018-08-10T23:07:51.071Z,11.98
2018-08-10T23:10:21.574Z,5.68
2018-08-10T23:12:55.082Z,2.20
2018-08-10T23:15:26.110Z,1.58
2018-08-10T23:17:59.207Z,1.87
2018-08-10T23:20:31.092Z,2.65
2018-08-10T23:23:02.762Z,2.53
2018-08-10T23:25:35.789Z,3.72
2018-08-10T23:28:05.835Z,1.73
2018-08-10T23:30:37.532Z,1.20
2018-08-10T23:33:12.149Z,2.50
2018-08-10T23:35:45.221Z,1.35
2018-08-10T23:38:14.551Z,2.58
2018-08-10T23:40:47.809Z,2.03
2018-08-10T23:43:19.512Z,3.40
2018-08-10T23:45:54.084Z,3.95
2018-08-10T23:48:25.738Z,2.75
2018-08-10T23:50:59.087Z,5.05
2018-08-10T23:53:32.300Z,2.33
2018-08-10T23:56:05.746Z,2.62
2018-08-10T23:58:40.429Z,2.72
